Погода Ескарсегана 2 недели

Кампече, Мексика

28 февраля-12 марта
  • 28февраля
    Сегодня
    +21°
    +38°
    Ясно и безоблачно
    ВремяПогодаТемператураВлажностьДавлениеВетер, м/сВероятность осадков
    00:00Ясно и безоблачно+23°C69 %751 мм4.1 м/с2 %
    03:00Ясно и безоблачно+22°C81 %751 мм3.7 м/с2 %
    06:00Ясно и безоблачно+21°C87 %751 мм3.2 м/с2 %
    09:00Облачно с прояснениями+27°C68 %752 мм5.6 м/с2 %
    12:00Практически безоблачно+33°C46 %752 мм5.0 м/с2 %
    15:00Ясно и безоблачно+38°C36 %749 мм3.2 м/с2 %
    18:00Практически безоблачно+32°C44 %749 мм2.4 м/с2 %
    21:00Ясно и безоблачно+28°C53 %752 мм5.2 м/с2 %
  • 29февраля
    Четверг
    +20°
    +38°
    Практически безоблачно
    ВремяПогодаТемператураВлажностьДавлениеВетер, м/сВероятность осадков
    00:00Ясно и безоблачно+25°C70 %753 мм3.8 м/с2 %
    03:00Ясно и безоблачно+22°C84 %752 мм3.7 м/с2 %
    06:00Ясно и безоблачно+21°C92 %753 мм3.2 м/с2 %
    09:00Небольшая облачность+27°C67 %755 мм5.2 м/с2 %
    12:00Практически безоблачно+33°C40 %754 мм3.1 м/с2 %
    15:00Практически безоблачно+37°C31 %751 мм3.0 м/с2 %
    18:00Облачно с прояснениями+33°C38 %751 мм2.4 м/с2 %
    21:00Ясно и безоблачно+24°C75 %754 мм2.1 м/с2 %
  • 01марта
    Пятница
    +21°
    +38°
    Ясно и безоблачно
    ВремяПогодаТемператураВлажностьДавлениеВетер, м/сВероятность осадков
    00:00Ясно и безоблачно+24°C67 %754 мм2.9 м/с2 %
    03:00Ясно и безоблачно+22°C79 %753 мм2.9 м/с2 %
    06:00Ясно и безоблачно+21°C92 %754 мм3.0 м/с2 %
    09:00Практически безоблачно+27°C66 %755 мм4.4 м/с2 %
    12:00Практически безоблачно+33°C40 %754 мм3.2 м/с3 %
    15:00Ясно и безоблачно+38°C32 %751 мм2.0 м/с2 %
    18:00Небольшая облачность+32°C47 %751 мм1.8 м/с2 %
    21:00Практически безоблачно+26°C61 %753 мм2.6 м/с2 %
  • 02марта
    Суббота
    +22°
    +38°
    Ясно и безоблачно
    ВремяПогодаТемператураВлажностьДавлениеВетер, м/сВероятность осадков
    00:00Ясно и безоблачно+26°C68 %753 мм3.2 м/с2 %
    03:00Ясно и безоблачно+23°C83 %752 мм3.4 м/с2 %
    06:00Практически безоблачно+22°C92 %753 мм2.8 м/с2 %
    09:00Небольшая облачность+28°C67 %754 мм4.3 м/с4 %
    12:00Небольшая облачность+33°C45 %753 мм2.1 м/с19 %
    15:00Ясно и безоблачно+38°C37 %750 мм1.5 м/с9 %
    18:00Практически безоблачно+32°C48 %751 мм2.0 м/с18 %
    21:00Ясно и безоблачно+27°C65 %752 мм2.3 м/с3 %
  • 03марта
    Воскресенье
    +22°
    +40°
    Ясно и безоблачно
    ВремяПогодаТемператураВлажностьДавлениеВетер, м/сВероятность осадков
    00:00Ясно и безоблачно+26°C68 %752 мм3.2 м/с2 %
    03:00Ясно и безоблачно+24°C81 %751 мм3.4 м/с2 %
    06:00Ясно и безоблачно+23°C88 %751 мм3.6 м/с2 %
    09:00Ясно и безоблачно+28°C68 %752 мм3.3 м/с2 %
    12:00Ясно и безоблачно+34°C43 %751 мм2.5 м/с2 %
    15:00Ясно и безоблачно+39°C34 %748 мм2.0 м/с2 %
    18:00Ясно и безоблачно+34°C40 %748 мм2.4 м/с2 %
    21:00Ясно и безоблачно+29°C49 %750 мм3.1 м/с2 %
Мы используем cookies
Соглашаюсь